Time,TemperatureF,DewpointF,PressureIn,WindDirection,WindDirectionDegrees,WindSpeedMPH,WindSpeedGustMPH,Humidity,HourlyPrecipIn,Conditions,Clouds,dailyrainin,SoftwareType,DateUTC
2013-07-05 00:01:00,75.9,69.0,30.04,SSW,209,0.0,0.0,80,0.00,,,0.01,weatherlink.com 1.10,2013-07-05 04:01:00,
2013-07-05 00:16:00,76.6,69.0,30.04,WSW,253,0.0,2.0,78,0.00,,,0.00,weatherlink.com 1.10,2013-07-05 04:16:00,
2013-07-05 00:31:00,76.6,69.0,30.04,SSW,207,0.0,0.0,78,0.00,,,0.00,weatherlink.com 1.10,2013-07-05 04:31:00,
2013-07-05 00:46:00,75.9,69.0,30.04,SSW,207,0.0,0.0,80,0.00,,,0.00,weatherlink.com 1.10,2013-07-05 04:46:00,
2013-07-05 01:01:00,75.0,69.0,30.03,NE,42,0.0,2.0,82,0.00,,,0.00,weatherlink.com 1.10,2013-07-05 05:01:00,
2013-07-05 01:16:00,74.5,69.0,30.04,NE,42,0.0,0.0,83,0.00,,,0.00,weatherlink.com 1.10,2013-07-05 05:16:00,
2013-07-05 01:31:00,74.0,69.0,30.03,NE,42,0.0,0.0,85,0.00,,,0.00,weatherlink.com 1.10,2013-07-05 05:31:00,
2013-07-05 01:46:00,73.5,69.0,30.03,NE,42,0.0,0.0,86,0.00,,,0.00,weatherlink.com 1.10,2013-07-05 05:46:00,
2013-07-05 02:01:00,72.8,69.0,30.03,NE,42,0.0,0.0,87,0.00,,,0.00,weatherlink.com 1.10,2013-07-05 06:01:00,
2013-07-05 02:16:00,72.2,69.0,30.03,ESE,107,0.0,0.0,88,0.00,,,0.00,weatherlink.com 1.10,2013-07-05 06:16:00,
2013-07-05 02:31:00,71.8,69.0,30.03,ESE,107,0.0,0.0,89,0.00,,,0.00,weatherlink.com 1.10,2013-07-05 06:31:00,
2013-07-05 02:46:00,71.7,68.0,30.04,ESE,107,0.0,0.0,89,0.00,,,0.00,weatherlink.com 1.10,2013-07-05 06:46:00,
2013-07-05 03:01:00,71.4,68.0,30.04,ESE,107,0.0,0.0,90,0.00,,,0.00,weatherlink.com 1.10,2013-07-05 07:01:00,
2013-07-05 03:16:00,71.2,68.0,30.04,ESE,107,0.0,0.0,90,0.00,,,0.00,weatherlink.com 1.10,2013-07-05 07:16:00,
2013-07-05 03:31:00,70.7,68.0,30.04,ESE,107,0.0,0.0,91,0.00,,,0.00,weatherlink.com 1.10,2013-07-05 07:31:00,
2013-07-05 03:46:00,70.3,68.0,30.05,ENE,72,0.0,0.0,91,0.00,,,0.00,weatherlink.com 1.10,2013-07-05 07:46:00,
2013-07-05 04:01:00,70.1,68.0,30.05,ENE,72,0.0,0.0,92,0.00,,,0.00,weatherlink.com 1.10,2013-07-05 08:01:00,
2013-07-05 04:16:00,69.8,67.0,30.05,ENE,72,0.0,0.0,92,0.00,,,0.00,weatherlink.com 1.10,2013-07-05 08:16:00,
2013-07-05 04:31:00,69.8,68.0,30.05,ENE,57,0.0,0.0,93,0.00,,,0.00,weatherlink.com 1.10,2013-07-05 08:31:00,
2013-07-05 04:46:00,69.8,68.0,30.05,ENE,57,0.0,0.0,93,0.00,,,0.00,weatherlink.com 1.10,2013-07-05 08:46:00,
2013-07-05 05:01:00,69.7,67.0,30.05,ENE,57,0.0,0.0,92,0.00,,,0.00,weatherlink.com 1.10,2013-07-05 09:01:00,
2013-07-05 05:31:00,68.8,67.0,30.06,ENE,57,0.0,0.0,93,0.00,,,0.00,weatherlink.com 1.10,2013-07-05 09:31:00,
2013-07-05 06:01:00,68.5,67.0,30.07,ENE,57,0.0,0.0,94,0.00,,,0.00,weatherlink.com 1.10,2013-07-05 10:01:00,
2013-07-05 06:16:00,68.5,67.0,30.08,ENE,57,0.0,0.0,94,0.00,,,0.00,weatherlink.com 1.10,2013-07-05 10:16:00,
2013-07-05 06:31:00,68.9,68.0,30.08,ENE,57,0.0,0.0,95,0.00,,,0.00,weatherlink.com 1.10,2013-07-05 10:31:00,
2013-07-05 06:46:00,69.9,68.0,30.08,ENE,57,0.0,0.0,94,0.00,,,0.00,weatherlink.com 1.10,2013-07-05 10:46:00,
2013-07-05 07:01:00,70.5,69.0,30.07,ENE,57,0.0,0.0,94,0.00,,,0.00,weatherlink.com 1.10,2013-07-05 11:01:00,
2013-07-05 07:16:00,71.5,68.0,30.07,ENE,57,0.0,0.0,89,0.00,,,0.00,weatherlink.com 1.10,2013-07-05 11:16:00,
2013-07-05 07:31:00,73.2,68.0,30.07,ENE,57,0.0,0.0,83,0.00,,,0.00,weatherlink.com 1.10,2013-07-05 11:31:00,
2013-07-05 07:46:00,74.8,68.0,30.08,ENE,57,0.0,0.0,79,0.00,,,0.00,weatherlink.com 1.10,2013-07-05 11:46:00,
2013-07-05 08:01:00,76.5,68.0,30.08,SSW,206,0.0,0.0,74,0.00,,,0.00,weatherlink.com 1.10,2013-07-05 12:01:00,
2013-07-05 08:17:00,77.7,68.0,30.08,SSW,207,0.0,1.0,72,0.00,,,0.00,weatherlink.com 1.10,2013-07-05 12:17:00,
2013-07-05 08:32:00,78.6,67.0,30.08,SSW,209,0.0,2.0,68,0.00,,,0.00,weatherlink.com 1.10,2013-07-05 12:32:00,
2013-07-05 08:47:00,79.1,67.0,30.07,SW,229,0.0,1.0,67,0.00,,,0.00,weatherlink.com 1.10,2013-07-05 12:47:00,
2013-07-05 09:17:00,80.7,67.0,30.07,SSW,205,0.0,2.0,64,0.00,,,0.00,weatherlink.com 1.10,2013-07-05 13:17:00,
2013-07-05 09:32:00,81.4,68.0,30.07,West,272,0.0,3.0,63,0.00,,,0.00,weatherlink.com 1.10,2013-07-05 13:32:00,
2013-07-05 09:47:00,82.0,68.0,30.07,SW,214,0.0,4.0,62,0.00,,,0.00,weatherlink.com 1.10,2013-07-05 13:47:00,
2013-07-05 10:17:00,82.9,68.0,30.07,SSW,207,0.0,4.0,61,0.00,,,0.00,weatherlink.com 1.10,2013-07-05 14:17:00,
2013-07-05 10:32:00,83.5,69.0,30.06,SW,223,0.0,3.0,61,0.00,,,0.00,weatherlink.com 1.10,2013-07-05 14:32:00,
2013-07-05 10:47:00,83.7,69.0,30.06,SW,234,0.0,3.0,61,0.00,,,0.00,weatherlink.com 1.10,2013-07-05 14:47:00,
2013-07-05 11:02:00,84.5,69.0,30.05,SSW,208,0.0,4.0,59,0.00,,,0.00,weatherlink.com 1.10,2013-07-05 15:02:00,
2013-07-05 11:17:00,84.9,68.0,30.05,South,171,1.0,3.0,58,0.00,,,0.00,weatherlink.com 1.10,2013-07-05 15:17:00,
2013-07-05 11:32:00,85.6,69.0,30.05,SW,234,0.0,3.0,58,0.00,,,0.00,weatherlink.com 1.10,2013-07-05 15:32:00,
2013-07-05 11:47:00,85.9,70.0,30.04,SSW,207,0.0,2.0,60,0.00,,,0.00,weatherlink.com 1.10,2013-07-05 15:47:00,
2013-07-05 12:02:00,86.2,69.0,30.04,SW,235,0.0,7.0,57,0.00,,,0.00,weatherlink.com 1.10,2013-07-05 16:02:00,
2013-07-05 12:17:00,87.0,69.0,30.04,SSW,200,0.0,2.0,55,0.00,,,0.00,weatherlink.com 1.10,2013-07-05 16:17:00,
2013-07-05 12:32:00,88.3,71.0,30.03,WSW,239,0.0,5.0,56,0.00,,,0.00,weatherlink.com 1.10,2013-07-05 16:32:00,
2013-07-05 12:47:00,89.1,69.0,30.02,SSW,193,0.0,6.0,51,0.00,,,0.00,weatherlink.com 1.10,2013-07-05 16:47:00,
2013-07-05 13:02:00,90.2,70.0,30.02,SSW,207,1.0,6.0,51,0.00,,,0.00,weatherlink.com 1.10,2013-07-05 17:02:00,
2013-07-05 13:17:00,90.7,70.0,30.01,South,173,0.0,5.0,51,0.00,,,0.00,weatherlink.com 1.10,2013-07-05 17:17:00,
2013-07-05 13:32:00,90.8,70.0,30.01,SW,231,0.0,5.0,51,0.00,,,0.00,weatherlink.com 1.10,2013-07-05 17:32:00,
2013-07-05 13:47:00,90.3,69.0,30.00,SSW,198,0.0,4.0,50,0.00,,,0.00,weatherlink.com 1.10,2013-07-05 17:47:00,
2013-07-05 14:02:00,89.9,70.0,30.00,South,176,1.0,7.0,53,0.00,,,0.00,weatherlink.com 1.10,2013-07-05 18:02:00,
2013-07-05 14:17:00,90.2,71.0,30.00,SW,219,3.0,7.0,53,0.00,,,0.00,weatherlink.com 1.10,2013-07-05 18:17:00,
2013-07-05 14:32:00,91.1,71.0,30.00,SW,220,0.0,5.0,51,0.00,,,0.00,weatherlink.com 1.10,2013-07-05 18:32:00,
2013-07-05 14:48:00,90.8,71.0,30.00,SSE,167,0.0,4.0,52,0.00,,,0.00,weatherlink.com 1.10,2013-07-05 18:48:00,
2013-07-05 15:03:00,91.0,71.0,29.99,WSW,244,0.0,8.0,52,0.00,,,0.00,weatherlink.com 1.10,2013-07-05 19:03:00,
2013-07-05 15:18:00,91.7,71.0,29.99,ESE,123,2.0,5.0,51,0.00,,,0.00,weatherlink.com 1.10,2013-07-05 19:18:00,
2013-07-05 15:33:00,92.2,70.0,29.99,South,191,0.0,3.0,49,0.00,,,0.00,weatherlink.com 1.10,2013-07-05 19:33:00,
2013-07-05 15:48:00,91.8,70.0,29.98,South,187,1.0,9.0,49,0.00,,,0.00,weatherlink.com 1.10,2013-07-05 19:48:00,
2013-07-05 16:03:00,90.8,70.0,29.97,SSW,192,0.0,6.0,51,0.00,,,0.00,weatherlink.com 1.10,2013-07-05 20:03:00,
2013-07-05 16:18:00,90.6,71.0,29.98,West,267,2.0,5.0,52,0.00,,,0.00,weatherlink.com 1.10,2013-07-05 20:18:00,
2013-07-05 16:33:00,91.1,71.0,29.97,South,187,0.0,1.0,52,0.00,,,0.00,weatherlink.com 1.10,2013-07-05 20:33:00,
2013-07-05 16:48:00,90.9,71.0,29.96,SW,215,0.0,4.0,53,0.00,,,0.00,weatherlink.com 1.10,2013-07-05 20:48:00,
2013-07-05 17:03:00,89.7,71.0,29.97,West,264,0.0,7.0,54,0.00,,,0.00,weatherlink.com 1.10,2013-07-05 21:03:00,
2013-07-05 17:18:00,87.3,70.0,29.96,NE,46,1.0,2.0,56,0.00,,,0.00,weatherlink.com 1.10,2013-07-05 21:18:00,
2013-07-05 17:33:00,85.9,70.0,29.97,NNE,25,0.0,1.0,59,0.00,,,0.00,weatherlink.com 1.10,2013-07-05 21:33:00,
2013-07-05 17:48:00,84.6,71.0,29.97,SSW,196,1.0,1.0,64,0.00,,,0.00,weatherlink.com 1.10,2013-07-05 21:48:00,
2013-07-05 18:03:00,83.8,70.0,29.97,SW,228,0.0,1.0,63,0.00,,,0.00,weatherlink.com 1.10,2013-07-05 22:03:00,
2013-07-05 18:18:00,83.5,72.0,29.97,SW,228,0.0,0.0,68,0.00,,,0.00,weatherlink.com 1.10,2013-07-05 22:18:00,
2013-07-05 18:33:00,84.8,71.0,29.97,SW,216,0.0,0.0,63,0.00,,,0.00,weatherlink.com 1.10,2013-07-05 22:33:00,
2013-07-05 18:48:00,85.4,71.0,29.97,South,188,0.0,2.0,63,0.00,,,0.00,weatherlink.com 1.10,2013-07-05 22:48:00,
2013-07-05 19:03:00,84.5,71.0,29.97,SSE,167,0.0,0.0,65,0.00,,,0.00,weatherlink.com 1.10,2013-07-05 23:03:00,
2013-07-05 19:18:00,83.2,72.0,29.97,SSE,167,0.0,0.0,69,0.00,,,0.00,weatherlink.com 1.10,2013-07-05 23:18:00,
2013-07-05 19:33:00,81.7,72.0,29.95,SSE,167,0.0,0.0,73,0.00,,,0.00,weatherlink.com 1.10,2013-07-05 23:33:00,
2013-07-05 19:48:00,80.6,71.0,29.95,SSE,167,0.0,0.0,73,0.00,,,0.00,weatherlink.com 1.10,2013-07-05 23:48:00,
2013-07-05 20:03:00,79.9,73.0,29.96,SSE,167,0.0,0.0,79,0.00,,,0.00,weatherlink.com 1.10,2013-07-06 00:03:00,
2013-07-05 20:18:00,78.7,72.0,29.96,SSE,167,0.0,0.0,81,0.00,,,0.00,weatherlink.com 1.10,2013-07-06 00:18:00,
2013-07-05 20:33:00,78.2,72.0,29.97,SSE,167,0.0,0.0,81,0.00,,,0.00,weatherlink.com 1.10,2013-07-06 00:33:00,
2013-07-05 20:48:00,77.8,72.0,29.97,SSE,167,0.0,0.0,82,0.00,,,0.00,weatherlink.com 1.10,2013-07-06 00:48:00,
2013-07-05 21:03:00,77.3,72.0,29.97,SSE,167,0.0,0.0,84,0.00,,,0.00,weatherlink.com 1.10,2013-07-06 01:03:00,
2013-07-05 21:18:00,77.0,72.0,29.98,SSE,167,0.0,0.0,85,0.00,,,0.00,weatherlink.com 1.10,2013-07-06 01:18:00,
2013-07-05 21:33:00,76.6,72.0,29.99,SSE,167,0.0,0.0,86,0.00,,,0.00,weatherlink.com 1.10,2013-07-06 01:33:00,
2013-07-05 21:48:00,76.3,72.0,29.99,SSE,167,0.0,0.0,87,0.00,,,0.00,weatherlink.com 1.10,2013-07-06 01:48:00,
2013-07-05 22:03:00,76.0,72.0,29.99,SSE,167,0.0,0.0,87,0.00,,,0.00,weatherlink.com 1.10,2013-07-06 02:03:00,
2013-07-05 22:18:00,75.7,72.0,29.98,SSE,167,0.0,0.0,87,0.00,,,0.00,weatherlink.com 1.10,2013-07-06 02:18:00,
2013-07-05 22:33:00,75.8,70.0,29.98,SSW,202,0.0,3.0,82,0.00,,,0.00,weatherlink.com 1.10,2013-07-06 02:33:00,
2013-07-05 22:48:00,77.4,69.0,29.97,South,191,0.0,0.0,76,0.00,,,0.00,weatherlink.com 1.10,2013-07-06 02:48:00,
2013-07-05 23:03:00,77.4,69.0,29.98,SSE,168,0.0,0.0,76,0.00,,,0.00,weatherlink.com 1.10,2013-07-06 03:03:00,
2013-07-05 23:18:00,77.0,69.0,29.97,SSE,167,0.0,0.0,77,0.00,,,0.00,weatherlink.com 1.10,2013-07-06 03:18:00,
2013-07-05 23:33:00,76.6,69.0,29.98,SSW,194,0.0,3.0,77,0.00,,,0.00,weatherlink.com 1.10,2013-07-06 03:33:00,
2013-07-05 23:48:00,77.1,69.0,29.98,SSW,205,0.0,2.0,76,0.00,,,0.00,weatherlink.com 1.10,2013-07-06 03:48:00,